TimePDT,TemperatureF,Dew PointF,Humidity,Sea Level PressureIn,VisibilityMPH,Wind Direction,Wind SpeedMPH,Gust SpeedMPH,PrecipitationIn,Events,Conditions,WindDirDegrees,DateUTC
12:56 AM,36.9,29.3,74,29.95,12.0,NNE,3.5,-,N/A,,Partly Cloudy,30,2014-04-05 07:56:00
1:56 AM,34.3,28.9,81,29.94,12.0,East,4.6,-,N/A,,Clear,100,2014-04-05 08:56:00
2:56 AM,34.7,30.0,83,29.95,12.0,SW,4.6,-,N/A,,Scattered Clouds,230,2014-04-05 09:56:00
3:56 AM,37.9,30.4,74,29.95,12.0,SW,2.3,-,N/A,,Overcast,220,2014-04-05 10:56:00
4:56 AM,35.1,30.0,82,29.96,12.0,South,3.5,-,N/A,,Partly Cloudy,190,2014-04-05 11:56:00
5:56 AM,36.9,29.3,74,29.97,12.0,ESE,3.5,-,N/A,,Scattered Clouds,110,2014-04-05 12:56:00
6:56 AM,33.4,29.1,84,29.98,12.0,SSW,2.3,-,N/A,,Partly Cloudy,200,2014-04-05 13:56:00
7:56 AM,36.9,29.8,76,30.01,12.0,Calm,Calm,-,N/A,,Partly Cloudy,0,2014-04-05 14:56:00
8:56 AM,40.6,31.6,70,30.01,12.0,WNW,2.3,-,N/A,,Clear,300,2014-04-05 15:56:00
9:56 AM,46.2,34.2,63,30.01,12.0,North,3.5,-,N/A,,Clear,10,2014-04-05 16:56:00
10:56 AM,51.1,35.1,54,30.01,12.0,West,5.8,-,N/A,,Scattered Clouds,270,2014-04-05 17:56:00
12:56 PM,57.0,32.2,39,29.99,12.0,SW,3.5,19.6,N/A,,Clear,230,2014-04-05 19:56:00
1:56 PM,58.1,35.4,43,29.99,12.0,SSW,6.9,-,N/A,,Scattered Clouds,200,2014-04-05 20:56:00
2:56 PM,59.4,34.0,39,29.97,12.0,SSW,6.9,-,N/A,,Mostly Cloudy,210,2014-04-05 21:56:00
3:56 PM,58.6,33.1,38,29.96,12.0,Variable,3.5,-,N/A,,Mostly Cloudy,0,2014-04-05 22:56:00
4:56 PM,58.5,38.1,47,29.95,12.0,SSW,13.8,20.7,N/A,,Scattered Clouds,210,2014-04-05 23:56:00
5:26 PM,57.2,39.2,51,29.95,12.0,SW,16.1,19.6,N/A,Rain,Light Rain,230,2014-04-06 00:26:00
5:51 PM,57.2,39.2,51,29.95,12.0,SW,16.1,23.0,N/A,,Mostly Cloudy,230,2014-04-06 00:51:00
5:56 PM,56.8,38.5,50,29.95,12.0,SW,16.1,21.9,N/A,,Mostly Cloudy,220,2014-04-06 00:56:00
6:56 PM,55.2,37.9,52,29.95,12.0,WSW,16.1,21.9,N/A,,Mostly Cloudy,240,2014-04-06 01:56:00
7:56 PM,52.0,38.5,60,29.95,12.0,WSW,6.9,-,N/A,,Mostly Cloudy,250,2014-04-06 02:56:00
8:56 PM,52.2,38.3,59,29.97,12.0,SSW,10.4,-,N/A,,Mostly Cloudy,210,2014-04-06 03:56:00
9:56 PM,48.9,37.9,66,29.98,12.0,NNW,3.5,-,N/A,,Partly Cloudy,340,2014-04-06 04:56:00
10:56 PM,45.9,36.0,68,30.00,12.0,ESE,8.1,-,N/A,,Partly Cloudy,110,2014-04-06 05:56:00
11:56 PM,44.6,37.0,75,30.02,12.0,East,5.8,-,N/A,,Scattered Clouds,100,2014-04-06 06:56:00